createdAt,value
2022-08-16T00:00:03.680Z,18.80
2022-08-16T00:02:33.623Z,18.80
2022-08-16T00:05:02.961Z,18.80
2022-08-16T00:07:32.328Z,18.90
2022-08-16T00:10:01.453Z,18.90
2022-08-16T00:12:31.329Z,18.80
2022-08-16T00:15:04.656Z,18.60
2022-08-16T00:17:56.757Z,18.30
2022-08-16T00:20:25.940Z,18.30
2022-08-16T00:22:54.207Z,18.40
2022-08-16T00:25:34.365Z,18.50
2022-08-16T00:28:13.693Z,18.60
2022-08-16T00:30:44.856Z,18.60
2022-08-16T00:33:13.228Z,18.30
2022-08-16T00:35:41.533Z,18.30
2022-08-16T00:38:41.414Z,18.40
2022-08-16T00:41:00.693Z,18.50
2022-08-16T00:43:42.655Z,18.70
2022-08-16T00:46:34.190Z,18.70
2022-08-16T00:49:04.860Z,18.90
2022-08-16T00:51:33.112Z,19.00
2022-08-16T00:54:02.076Z,19.00
2022-08-16T00:56:57.741Z,19.00
2022-08-16T00:59:25.885Z,19.00
2022-08-16T01:01:56.588Z,18.80
2022-08-16T01:04:30.832Z,18.80
2022-08-16T01:07:01.135Z,18.50
2022-08-16T01:09:33.133Z,18.50
2022-08-16T01:12:04.761Z,18.40
2022-08-16T01:14:43.510Z,18.20
2022-08-16T01:17:15.429Z,18.20
2022-08-16T01:19:47.752Z,18.20
2022-08-16T01:22:47.892Z,18.00
2022-08-16T01:25:15.954Z,17.90
2022-08-16T01:27:47.219Z,17.80
2022-08-16T01:30:21.899Z,17.70
2022-08-16T01:33:15.158Z,17.70
2022-08-16T01:35:52.858Z,17.60
2022-08-16T01:38:25.976Z,17.60
2022-08-16T01:41:02.015Z,17.70
2022-08-16T01:43:31.983Z,17.90
2022-08-16T01:46:29.719Z,18.00
2022-08-16T01:49:05.339Z,18.00
2022-08-16T01:51:34.108Z,18.00
2022-08-16T01:54:08.999Z,17.70
2022-08-16T01:56:47.042Z,17.70
2022-08-16T01:59:19.076Z,17.80
2022-08-16T02:01:52.819Z,17.90
2022-08-16T02:04:54.395Z,18.00
2022-08-16T02:07:23.667Z,18.10
2022-08-16T02:09:58.605Z,18.10
2022-08-16T02:12:51.725Z,18.10
2022-08-16T02:15:27.066Z,18.00
2022-08-16T02:18:01.436Z,17.90
2022-08-16T02:20:33.750Z,17.70
2022-08-16T02:23:05.882Z,17.60
2022-08-16T02:25:52.235Z,17.70
2022-08-16T02:28:26.183Z,17.70
2022-08-16T02:30:56.717Z,17.70
2022-08-16T02:33:44.431Z,17.70
2022-08-16T02:36:47.928Z,17.70
2022-08-16T02:39:14.790Z,17.50
2022-08-16T02:41:46.806Z,17.50
2022-08-16T02:44:26.900Z,17.60
2022-08-16T02:46:57.613Z,17.70
2022-08-16T02:49:58.183Z,17.70
2022-08-16T02:52:24.822Z,17.70
2022-08-16T02:57:30.976Z,17.30
2022-08-16T03:00:03.772Z,17.30
2022-08-16T03:02:56.024Z,17.30
2022-08-16T03:05:25.231Z,17.30
2022-08-16T03:07:53.397Z,17.30
2022-08-16T03:10:21.737Z,17.30
2022-08-16T03:13:03.491Z,17.30
2022-08-16T03:15:41.104Z,17.30
2022-08-16T03:18:18.596Z,17.40
2022-08-16T03:20:59.678Z,17.50
2022-08-16T03:23:35.899Z,17.60
2022-08-16T03:26:05.023Z,17.50
2022-08-16T03:28:33.244Z,17.30
2022-08-16T03:31:03.494Z,17.10
2022-08-16T03:33:31.836Z,16.90
2022-08-16T03:36:30.998Z,16.80
2022-08-16T03:38:57.189Z,16.90
2022-08-16T03:41:29.389Z,16.80
2022-08-16T03:44:03.703Z,16.90
2022-08-16T03:46:45.103Z,16.90
2022-08-16T03:49:22.427Z,16.80
2022-08-16T03:51:53.753Z,16.40
2022-08-16T03:54:28.510Z,16.40
2022-08-16T03:56:58.759Z,16.40
2022-08-16T03:59:32.051Z,16.60
2022-08-16T04:02:12.159Z,16.70
2022-08-16T04:04:51.540Z,16.80
2022-08-16T04:07:19.853Z,16.90
2022-08-16T04:09:49.507Z,16.90
2022-08-16T04:12:53.849Z,16.90
2022-08-16T04:15:09.594Z,16.90
2022-08-16T04:17:45.258Z,16.80
2022-08-16T04:20:31.670Z,16.70
2022-08-16T04:23:06.272Z,16.60
2022-08-16T04:25:38.557Z,16.50
2022-08-16T04:28:29.255Z,16.60
2022-08-16T04:31:00.157Z,16.70
2022-08-16T04:33:35.057Z,16.80
2022-08-16T04:36:04.777Z,16.80
2022-08-16T04:38:34.699Z,16.80
2022-08-16T04:41:04.139Z,16.90
2022-08-16T04:43:38.547Z,16.90
2022-08-16T04:47:00.223Z,16.90
2022-08-16T04:49:08.016Z,17.00
2022-08-16T04:51:36.580Z,17.20
2022-08-16T04:54:08.012Z,17.50
2022-08-16T04:56:42.793Z,17.70
2022-08-16T04:59:14.566Z,17.90
2022-08-16T05:01:56.042Z,18.00
2022-08-16T05:04:30.045Z,18.00
2022-08-16T05:07:00.297Z,18.00
2022-08-16T05:09:49.250Z,18.00
2022-08-16T05:12:22.135Z,18.00
2022-08-16T05:15:01.685Z,17.90
2022-08-16T05:17:34.518Z,18.00
2022-08-16T05:20:39.149Z,18.00
2022-08-16T05:23:00.419Z,17.80
2022-08-16T05:25:40.713Z,17.70
2022-08-16T05:28:11.902Z,17.90
2022-08-16T05:30:50.439Z,18.10
2022-08-16T05:33:23.293Z,18.50
2022-08-16T05:35:55.622Z,19.00
2022-08-16T05:38:38.882Z,19.00
2022-08-16T05:41:10.465Z,19.00
2022-08-16T05:43:46.774Z,19.20
2022-08-16T05:46:30.057Z,19.50
2022-08-16T05:49:09.085Z,19.40
2022-08-16T05:51:42.682Z,19.20
2022-08-16T05:54:20.242Z,19.40
2022-08-16T05:56:58.032Z,19.50
2022-08-16T05:59:29.404Z,19.70
2022-08-16T06:01:59.362Z,19.70
2022-08-16T06:04:35.513Z,19.90
2022-08-16T06:07:24.269Z,20.70
2022-08-16T06:10:33.152Z,21.20
2022-08-16T06:13:03.717Z,21.20
2022-08-16T06:15:33.011Z,20.90
2022-08-16T06:18:05.749Z,21.00
2022-08-16T06:20:36.885Z,21.00
2022-08-16T06:23:26.320Z,20.60
2022-08-16T06:26:00.927Z,20.40
2022-08-16T06:28:37.081Z,20.40
2022-08-16T06:31:14.836Z,21.20
2022-08-16T06:33:47.476Z,21.80
2022-08-16T06:39:17.794Z,22.00
2022-08-16T06:42:07.165Z,21.60
2022-08-16T06:45:09.955Z,21.70
2022-08-16T06:47:57.064Z,22.00
2022-08-16T06:56:05.987Z,22.50
2022-08-16T06:58:55.159Z,22.50
2022-08-16T07:01:45.165Z,22.80
2022-08-16T07:04:31.486Z,22.20
2022-08-16T07:07:09.686Z,22.20
2022-08-16T07:09:40.197Z,22.40
2022-08-16T07:12:11.488Z,22.50
2022-08-16T07:14:48.532Z,22.40
2022-08-16T07:20:30.344Z,22.40
2022-08-16T07:22:52.539Z,22.50
2022-08-16T07:25:33.968Z,22.40
2022-08-16T07:28:20.852Z,22.60
2022-08-16T07:30:56.220Z,22.10
2022-08-16T07:33:53.760Z,21.40
2022-08-16T07:36:22.684Z,21.00
2022-08-16T07:38:53.551Z,21.30
2022-08-16T07:41:23.742Z,21.50
2022-08-16T07:44:01.741Z,21.70
2022-08-16T07:46:38.501Z,22.10
2022-08-16T07:49:22.995Z,22.40
2022-08-16T07:51:54.476Z,22.50
2022-08-16T07:54:32.123Z,22.50
2022-08-16T07:57:04.565Z,22.50
2022-08-16T07:59:42.778Z,22.40
2022-08-16T08:02:19.618Z,22.40
2022-08-16T08:04:50.204Z,22.60
2022-08-16T08:07:19.047Z,22.40
2022-08-16T08:09:54.152Z,22.60
2022-08-16T08:12:32.254Z,23.00
2022-08-16T08:15:09.560Z,23.10
2022-08-16T08:20:27.916Z,23.10
2022-08-16T08:23:00.785Z,23.30
2022-08-16T08:25:54.061Z,23.30
2022-08-16T08:28:25.671Z,23.30
2022-08-16T08:31:03.192Z,23.30
2022-08-16T08:33:46.723Z,23.30
2022-08-16T08:36:24.049Z,23.20
2022-08-16T08:39:12.530Z,22.90
2022-08-16T08:41:46.536Z,22.70
2022-08-16T08:44:29.342Z,22.80
2022-08-16T08:47:09.367Z,22.90
2022-08-16T08:49:46.389Z,23.50
2022-08-16T08:52:34.583Z,23.80
2022-08-16T08:55:11.469Z,24.00
2022-08-16T08:57:45.337Z,24.00
2022-08-16T09:00:26.967Z,24.00
2022-08-16T09:03:04.436Z,24.20
2022-08-16T09:05:37.467Z,24.30
2022-08-16T09:10:58.806Z,23.90
2022-08-16T09:16:02.988Z,24.30
2022-08-16T09:18:35.977Z,24.40
2022-08-16T09:23:39.572Z,23.90
2022-08-16T09:26:45.433Z,23.90
2022-08-16T09:29:17.119Z,24.00
2022-08-16T09:31:54.210Z,24.40
2022-08-16T09:34:27.317Z,25.00
2022-08-16T09:36:58.088Z,25.40
2022-08-16T09:39:41.441Z,25.50
2022-08-16T09:42:15.665Z,25.40
2022-08-16T09:45:12.114Z,25.40
2022-08-16T09:47:57.399Z,25.40
2022-08-16T09:50:37.200Z,25.10
2022-08-16T09:53:14.722Z,24.70
2022-08-16T09:55:51.197Z,25.10
2022-08-16T09:58:41.399Z,25.50
2022-08-16T10:01:11.286Z,25.40
2022-08-16T10:04:01.874Z,25.20
2022-08-16T10:06:33.592Z,25.10
2022-08-16T10:09:05.491Z,25.10
2022-08-16T10:11:53.987Z,25.40
2022-08-16T10:14:33.478Z,26.00
2022-08-16T10:17:05.003Z,26.20
2022-08-16T10:19:34.715Z,25.90
2022-08-16T10:22:05.742Z,25.90
2022-08-16T10:24:35.080Z,26.40
2022-08-16T10:27:25.139Z,26.60
2022-08-16T10:29:59.229Z,26.60
2022-08-16T10:32:32.429Z,26.10
2022-08-16T10:35:02.209Z,26.10
2022-08-16T10:40:28.805Z,25.50
2022-08-16T10:42:56.231Z,25.30
2022-08-16T10:45:28.446Z,25.60
2022-08-16T10:48:27.333Z,25.80
2022-08-16T10:50:58.198Z,25.80
2022-08-16T10:53:32.997Z,26.10
2022-08-16T10:56:03.437Z,26.40
2022-08-16T10:58:35.783Z,26.40
2022-08-16T11:03:57.868Z,27.10
2022-08-16T11:06:27.842Z,27.30
2022-08-16T11:14:37.295Z,26.30
2022-08-16T11:17:11.378Z,26.10
2022-08-16T11:22:41.943Z,26.60
2022-08-16T11:28:10.147Z,27.50
2022-08-16T11:30:42.625Z,27.80
2022-08-16T11:36:22.154Z,27.20
2022-08-16T11:41:29.516Z,26.80
2022-08-16T11:44:04.809Z,26.80
2022-08-16T11:46:44.320Z,26.80
2022-08-16T11:49:14.914Z,27.20
2022-08-16T11:51:45.111Z,27.30
2022-08-16T11:56:57.353Z,27.70
2022-08-16T11:59:31.373Z,27.70
2022-08-16T12:07:25.195Z,28.10
2022-08-16T12:09:57.906Z,28.20
2022-08-16T12:12:38.967Z,28.10
2022-08-16T12:15:10.129Z,27.20
2022-08-16T12:17:40.398Z,27.20
2022-08-16T12:20:18.750Z,27.70
2022-08-16T12:25:20.437Z,27.40
2022-08-16T12:27:52.933Z,27.40
2022-08-16T12:30:33.524Z,28.20
2022-08-16T12:33:12.148Z,28.20
2022-08-16T12:35:45.143Z,28.50
2022-08-16T12:38:38.643Z,28.50
2022-08-16T12:41:14.818Z,28.40
2022-08-16T12:43:57.117Z,27.80
2022-08-16T12:46:31.815Z,27.60
2022-08-16T12:49:03.773Z,27.80
2022-08-16T12:51:58.709Z,27.80
2022-08-16T12:54:26.335Z,28.10
2022-08-16T12:59:31.192Z,27.80
2022-08-16T13:02:01.144Z,28.00
2022-08-16T13:04:33.915Z,28.30
2022-08-16T13:07:06.017Z,27.50
2022-08-16T13:09:51.808Z,27.70
2022-08-16T13:12:26.962Z,27.90
2022-08-16T13:14:58.855Z,28.40
2022-08-16T13:17:31.503Z,28.30
2022-08-16T13:20:08.593Z,28.40
2022-08-16T13:22:46.809Z,28.20
2022-08-16T13:25:21.922Z,28.30
2022-08-16T13:28:01.681Z,27.90
2022-08-16T13:30:42.614Z,28.00
2022-08-16T13:33:29.182Z,28.30
2022-08-16T13:36:04.199Z,28.70
2022-08-16T13:38:41.204Z,29.10
2022-08-16T13:41:16.457Z,29.10
2022-08-16T13:46:42.241Z,29.00
2022-08-16T13:49:13.805Z,29.00
2022-08-16T13:51:48.564Z,29.20
2022-08-16T13:56:48.514Z,28.50
2022-08-16T13:59:21.167Z,28.50
2022-08-16T14:01:59.677Z,28.50
2022-08-16T14:04:31.489Z,29.00
2022-08-16T14:07:01.609Z,29.20
2022-08-16T14:09:34.406Z,29.50
2022-08-16T14:12:09.697Z,29.70
2022-08-16T14:17:16.923Z,28.90
2022-08-16T14:22:31.282Z,29.20
2022-08-16T14:25:14.053Z,29.30
2022-08-16T14:27:45.243Z,29.40
2022-08-16T14:30:17.941Z,29.20
2022-08-16T14:32:51.117Z,28.90
2022-08-16T14:35:36.315Z,29.50
2022-08-16T14:38:18.201Z,29.40
2022-08-16T14:40:55.123Z,29.60
2022-08-16T14:43:29.787Z,29.20
2022-08-16T14:46:00.467Z,29.50
2022-08-16T14:48:34.333Z,29.80
2022-08-16T14:51:06.567Z,30.00
2022-08-16T14:53:35.711Z,30.10
2022-08-16T14:56:08.208Z,30.20
2022-08-16T14:58:54.455Z,30.10
2022-08-16T15:01:25.505Z,30.10
2022-08-16T15:04:39.976Z,29.70
2022-08-16T15:07:10.141Z,29.70
2022-08-16T15:09:44.213Z,29.80
2022-08-16T15:12:33.913Z,30.00
2022-08-16T15:15:12.279Z,30.20
2022-08-16T15:17:56.705Z,30.00
2022-08-16T15:20:45.668Z,29.60
2022-08-16T15:23:16.057Z,29.40
2022-08-16T15:25:55.931Z,29.70
2022-08-16T15:28:55.135Z,29.70
2022-08-16T15:31:34.071Z,29.20
2022-08-16T15:34:08.828Z,29.20
2022-08-16T15:39:30.449Z,29.20
2022-08-16T15:42:11.523Z,29.10
2022-08-16T15:44:58.626Z,29.30
2022-08-16T15:47:29.800Z,29.60
2022-08-16T15:50:00.914Z,29.60
2022-08-16T15:52:36.050Z,29.70
2022-08-16T15:55:23.927Z,29.70
2022-08-16T15:57:59.631Z,29.60
2022-08-16T16:00:31.034Z,29.70
2022-08-16T16:03:10.693Z,29.80
2022-08-16T16:05:45.121Z,29.60
2022-08-16T16:08:23.962Z,29.20
2022-08-16T16:10:57.423Z,29.30
2022-08-16T16:13:30.235Z,29.60
2022-08-16T16:16:13.227Z,29.50
2022-08-16T16:18:50.578Z,28.90
2022-08-16T16:21:23.544Z,29.10
2022-08-16T16:24:03.114Z,29.30
2022-08-16T16:26:49.833Z,29.40
2022-08-16T16:29:20.848Z,29.40
2022-08-16T16:31:59.783Z,29.40
2022-08-16T16:34:35.371Z,29.40
2022-08-16T16:37:04.764Z,29.30
2022-08-16T16:39:43.340Z,29.20
2022-08-16T16:42:29.656Z,29.20
2022-08-16T16:45:02.179Z,29.00
2022-08-16T16:47:40.826Z,29.20
2022-08-16T16:50:16.929Z,29.20
2022-08-16T16:52:48.379Z,29.40
2022-08-16T16:58:05.892Z,29.40
2022-08-16T17:00:51.819Z,29.10
2022-08-16T17:03:25.762Z,28.90
2022-08-16T17:06:02.789Z,28.80
2022-08-16T17:08:40.843Z,28.70
2022-08-16T17:13:45.769Z,28.60
2022-08-16T17:16:18.564Z,28.50
2022-08-16T17:21:40.262Z,28.50
2022-08-16T17:24:18.374Z,28.70
2022-08-16T17:29:46.501Z,29.00
2022-08-16T17:32:34.163Z,28.90
2022-08-16T17:35:18.489Z,29.00
2022-08-16T17:37:53.477Z,28.80
2022-08-16T17:39:28.455Z,28.90
2022-08-16T17:40:46.615Z,28.90
2022-08-16T17:43:22.881Z,28.80
2022-08-16T17:45:54.186Z,28.70
2022-08-16T17:48:32.034Z,28.70
2022-08-16T17:51:06.554Z,28.50
2022-08-16T17:53:37.176Z,28.30
2022-08-16T17:56:07.890Z,28.30
2022-08-16T17:58:42.042Z,28.20
2022-08-16T18:01:13.677Z,28.10
2022-08-16T18:04:06.371Z,28.10
2022-08-16T18:06:34.349Z,28.00
2022-08-16T18:09:04.375Z,28.00
2022-08-16T18:11:35.433Z,28.00
2022-08-16T18:14:07.453Z,27.90
2022-08-16T18:16:37.795Z,27.90
2022-08-16T18:19:07.433Z,27.90
2022-08-16T18:21:57.627Z,27.90
2022-08-16T18:24:30.713Z,27.90
2022-08-16T18:27:24.686Z,27.90
2022-08-16T18:32:24.858Z,27.70
2022-08-16T18:34:55.072Z,27.60
2022-08-16T18:37:25.261Z,27.50
2022-08-16T18:39:58.083Z,27.40
2022-08-16T18:42:30.730Z,27.40
2022-08-16T18:47:32.233Z,26.40
2022-08-16T18:50:02.988Z,26.10
2022-08-16T18:52:33.808Z,26.00
2022-08-16T18:57:45.998Z,25.40
2022-08-16T19:00:19.344Z,25.30
2022-08-16T19:02:58.535Z,25.30
2022-08-16T19:05:31.670Z,25.20
2022-08-16T19:08:03.606Z,25.10
2022-08-16T19:10:35.528Z,25.10
2022-08-16T19:13:10.539Z,24.90
2022-08-16T19:15:43.872Z,24.50
2022-08-16T19:18:17.086Z,24.50
2022-08-16T19:20:49.660Z,24.20
2022-08-16T19:23:23.177Z,24.10
2022-08-16T19:26:02.691Z,24.10
2022-08-16T19:28:59.106Z,24.00
2022-08-16T19:31:36.053Z,23.90
2022-08-16T19:34:06.165Z,23.90
2022-08-16T19:36:39.745Z,23.80
2022-08-16T19:39:14.038Z,23.80
2022-08-16T19:41:46.512Z,23.80
2022-08-16T19:44:24.516Z,23.80
2022-08-16T19:49:28.577Z,23.60
2022-08-16T19:51:59.022Z,23.50
2022-08-16T19:54:30.943Z,23.50
2022-08-16T19:57:16.240Z,23.50
2022-08-16T19:59:54.852Z,23.50
2022-08-16T20:02:36.166Z,23.50
2022-08-16T20:05:10.888Z,23.40
2022-08-16T20:07:41.180Z,23.50
2022-08-16T20:10:15.549Z,23.50
2022-08-16T20:13:02.101Z,23.20
2022-08-16T20:15:35.827Z,23.20
2022-08-16T20:18:24.388Z,23.20
2022-08-16T20:20:57.504Z,23.20
2022-08-16T20:23:28.598Z,23.10
2022-08-16T20:25:58.377Z,23.00
2022-08-16T20:28:47.732Z,23.00
2022-08-16T20:31:18.205Z,22.80
2022-08-16T20:33:50.303Z,22.80
2022-08-16T20:36:21.171Z,22.80
2022-08-16T20:38:52.745Z,22.80
2022-08-16T20:41:22.646Z,22.90
2022-08-16T20:43:51.182Z,22.90
2022-08-16T20:46:24.516Z,22.70
2022-08-16T20:48:54.337Z,22.60
2022-08-16T20:51:22.811Z,22.70
2022-08-16T20:53:51.353Z,22.80
2022-08-16T20:56:19.828Z,22.70
2022-08-16T20:58:49.618Z,22.60
2022-08-16T21:01:18.327Z,22.50
2022-08-16T21:03:49.591Z,22.30
2022-08-16T21:06:20.629Z,22.10
2022-08-16T21:09:15.541Z,22.20
2022-08-16T21:11:44.082Z,22.20
2022-08-16T21:14:12.507Z,22.10
2022-08-16T21:16:41.440Z,22.10
2022-08-16T21:19:10.063Z,22.10
2022-08-16T21:21:39.648Z,22.10
2022-08-16T21:24:08.183Z,22.10
2022-08-16T21:26:39.128Z,22.10
2022-08-16T21:29:11.210Z,22.10
2022-08-16T21:31:44.292Z,22.10
2022-08-16T21:34:13.872Z,22.10
2022-08-16T21:36:46.231Z,22.10
2022-08-16T21:39:14.447Z,22.10
2022-08-16T21:41:44.150Z,22.30
2022-08-16T21:44:12.638Z,22.20
2022-08-16T21:46:42.334Z,22.30
2022-08-16T21:49:10.450Z,22.40
2022-08-16T21:51:38.642Z,22.60
2022-08-16T21:54:09.053Z,22.60
2022-08-16T22:01:43.975Z,22.30
2022-08-16T22:04:37.947Z,22.30
2022-08-16T22:07:02.490Z,22.40
2022-08-16T22:09:34.628Z,22.60
2022-08-16T22:12:02.874Z,22.60
2022-08-16T22:14:31.092Z,22.30
2022-08-16T22:16:59.333Z,22.00
2022-08-16T22:19:27.565Z,21.90
2022-08-16T22:21:55.735Z,21.90
2022-08-16T22:24:24.109Z,21.80
2022-08-16T22:26:53.899Z,21.70
2022-08-16T22:29:22.094Z,21.50
2022-08-16T22:31:50.424Z,21.40
2022-08-16T22:34:21.078Z,21.40
2022-08-16T22:36:51.038Z,21.40
2022-08-16T22:39:19.473Z,21.40
2022-08-16T22:41:49.857Z,21.40
2022-08-16T22:44:21.667Z,21.40
2022-08-16T22:46:50.190Z,21.40
2022-08-16T22:49:18.418Z,21.30
2022-08-16T22:51:48.953Z,21.20
2022-08-16T22:54:34.361Z,21.20
2022-08-16T22:57:06.354Z,21.20
2022-08-16T22:59:36.426Z,21.10
2022-08-16T23:02:08.391Z,21.00
2022-08-16T23:04:37.455Z,21.00
2022-08-16T23:07:06.601Z,21.00
2022-08-16T23:09:34.860Z,21.00
2022-08-16T23:12:06.005Z,21.00
2022-08-16T23:14:35.617Z,20.90
2022-08-16T23:17:04.074Z,21.00
2022-08-16T23:19:33.986Z,20.90
2022-08-16T23:22:02.102Z,20.90
2022-08-16T23:24:30.344Z,20.90
2022-08-16T23:27:05.502Z,21.00
2022-08-16T23:29:38.339Z,21.00
2022-08-16T23:32:12.398Z,21.10
2022-08-16T23:34:40.920Z,21.20
2022-08-16T23:37:09.494Z,21.20
2022-08-16T23:39:37.677Z,21.10
2022-08-16T23:42:12.939Z,21.10
2022-08-16T23:44:58.375Z,21.00
2022-08-16T23:47:27.577Z,20.80
2022-08-16T23:50:03.077Z,20.70
2022-08-16T23:52:42.204Z,20.60
2022-08-16T23:55:22.892Z,20.60
2022-08-16T23:57:52.301Z,20.50
